createdAt,value
2017-08-22T00:01:22.214Z,101390.78
2017-08-22T00:03:49.381Z,101396.91
2017-08-22T00:06:16.563Z,101403.92
2017-08-22T00:08:44.108Z,101402.56
2017-08-22T00:11:11.299Z,101392.52
2017-08-22T00:13:40.477Z,101389.48
2017-08-22T00:16:07.846Z,101391.25
2017-08-22T00:18:35.013Z,101385.55
2017-08-22T00:21:02.181Z,101389.95
2017-08-22T00:23:29.655Z,101389.90
2017-08-22T00:25:57.356Z,101387.75
2017-08-22T00:28:24.804Z,101378.59
2017-08-22T00:30:52.456Z,101375.97
2017-08-22T00:33:19.721Z,101381.67
2017-08-22T00:35:47.180Z,101380.37
2017-08-22T00:38:14.708Z,101372.52
2017-08-22T00:40:41.877Z,101369.48
2017-08-22T00:43:09.367Z,101371.20
2017-08-22T00:45:37.011Z,101371.25
2017-08-22T00:48:04.181Z,101369.48
2017-08-22T00:50:31.363Z,101371.67
2017-08-22T00:52:58.537Z,101374.71
2017-08-22T00:55:25.708Z,101371.20
2017-08-22T00:57:52.887Z,101372.09
2017-08-22T01:00:20.057Z,101371.67
2017-08-22T01:02:47.229Z,101371.67
2017-08-22T01:05:14.410Z,101372.14
2017-08-22T01:07:41.582Z,101376.02
2017-08-22T01:10:08.813Z,101379.05
2017-08-22T01:12:36.004Z,101375.60
2017-08-22T01:15:03.245Z,101375.13
2017-08-22T01:17:30.427Z,101378.22
2017-08-22T01:19:57.901Z,101388.69
2017-08-22T01:22:25.183Z,101383.92
2017-08-22T01:24:52.949Z,101386.06
2017-08-22T01:27:20.631Z,101389.11
2017-08-22T01:29:47.805Z,101385.23
2017-08-22T01:32:15.190Z,101396.12
2017-08-22T01:34:42.461Z,101386.53
2017-08-22T01:37:10.101Z,101384.34
2017-08-22T01:39:37.592Z,101389.11
2017-08-22T01:42:05.224Z,101387.38
2017-08-22T01:44:32.419Z,101384.77
2017-08-22T01:46:59.599Z,101384.34
2017-08-22T01:49:26.787Z,101383.50
2017-08-22T01:51:53.974Z,101382.23
2017-08-22T01:54:21.145Z,101386.11
2017-08-22T01:56:49.047Z,101372.19
2017-08-22T01:59:16.736Z,101370.84
2017-08-22T02:01:44.191Z,101376.95
2017-08-22T02:04:11.361Z,101375.18
2017-08-22T02:06:38.543Z,101373.88
2017-08-22T02:09:05.713Z,101377.38
2017-08-22T02:11:33.407Z,101378.27
2017-08-22T02:14:01.036Z,101380.04
2017-08-22T02:16:28.315Z,101377.80
2017-08-22T02:18:55.504Z,101379.57
2017-08-22T02:21:22.921Z,101375.23
2017-08-22T02:23:50.693Z,101376.95
2017-08-22T02:26:18.346Z,101378.73
2017-08-22T02:28:45.665Z,101387.00
2017-08-22T02:31:12.853Z,101377.42
2017-08-22T02:33:40.400Z,101375.23
2017-08-22T02:36:07.670Z,101377.42
2017-08-22T02:38:35.184Z,101369.58
2017-08-22T02:41:02.805Z,101370.88
2017-08-22T02:43:30.042Z,101369.16
2017-08-22T02:45:57.561Z,101364.34
2017-08-22T02:48:25.078Z,101361.30
2017-08-22T02:50:52.408Z,101360.00
2017-08-22T02:53:19.582Z,101363.08
2017-08-22T02:55:46.753Z,101368.69
2017-08-22T02:58:13.985Z,101363.03
2017-08-22T03:00:41.514Z,101363.03
2017-08-22T03:03:08.765Z,101368.27
2017-08-22T03:05:36.228Z,101359.16
2017-08-22T03:08:03.677Z,101364.80
2017-08-22T03:10:31.139Z,101364.80
2017-08-22T03:12:58.401Z,101363.50
2017-08-22T03:15:25.869Z,101361.35
2017-08-22T03:17:53.387Z,101362.61
2017-08-22T03:20:20.879Z,101360.88
2017-08-22T03:22:48.064Z,101356.95
2017-08-22T03:25:15.241Z,101360.04
2017-08-22T03:27:42.721Z,101354.34
2017-08-22T03:30:10.188Z,101357.84
2017-08-22T03:32:37.838Z,101358.31
2017-08-22T03:35:05.100Z,101362.66
2017-08-22T03:37:32.626Z,101359.63
2017-08-22T03:40:00.143Z,101362.66
2017-08-22T03:42:27.322Z,101367.42
2017-08-22T03:44:54.777Z,101362.66
2017-08-22T03:47:21.964Z,101371.34
2017-08-22T03:49:49.131Z,101366.58
2017-08-22T03:52:16.311Z,101367.89
2017-08-22T03:54:43.496Z,101361.43
2017-08-22T03:57:10.669Z,101357.84
2017-08-22T03:59:37.851Z,101360.88
2017-08-22T04:02:05.292Z,101359.16
2017-08-22T04:04:32.476Z,101356.20
2017-08-22T04:06:59.984Z,101365.74
2017-08-22T04:09:27.426Z,101359.63
2017-08-22T04:11:54.612Z,101358.81
2017-08-22T04:14:21.957Z,101358.81
2017-08-22T04:16:49.412Z,101358.39
2017-08-22T04:19:16.585Z,101363.63
2017-08-22T04:21:43.757Z,101353.97
2017-08-22T04:24:11.174Z,101355.27
2017-08-22T04:26:38.698Z,101350.46
2017-08-22T04:29:05.888Z,101347.92
2017-08-22T04:31:33.071Z,101344.34
2017-08-22T04:34:00.453Z,101352.27
2017-08-22T04:36:27.844Z,101356.20
2017-08-22T04:38:55.017Z,101356.59
2017-08-22T04:41:22.452Z,101357.00
2017-08-22T04:43:50.099Z,101358.81
2017-08-22T04:46:17.364Z,101361.81
2017-08-22T04:48:44.533Z,101353.58
2017-08-22T04:51:11.716Z,101351.34
2017-08-22T04:53:39.242Z,101355.77
2017-08-22T04:56:06.432Z,101361.81
2017-08-22T04:58:33.730Z,101357.50
2017-08-22T05:01:00.901Z,101354.89
2017-08-22T05:03:28.344Z,101353.16
2017-08-22T05:05:55.793Z,101350.12
2017-08-22T05:08:23.247Z,101350.55
2017-08-22T05:10:50.701Z,101348.81
2017-08-22T05:13:17.910Z,101354.47
2017-08-22T05:15:45.096Z,101357.97
2017-08-22T05:18:12.468Z,101354.89
2017-08-22T05:20:39.656Z,101354.47
2017-08-22T05:23:07.072Z,101341.11
2017-08-22T05:25:34.529Z,101350.78
2017-08-22T05:28:02.106Z,101351.11
2017-08-22T05:30:29.650Z,101357.64
2017-08-22T05:32:56.827Z,101359.80
2017-08-22T05:35:24.002Z,101359.70
2017-08-22T05:37:51.203Z,101358.39
2017-08-22T05:40:19.273Z,101363.20
2017-08-22T05:42:46.786Z,101358.39
2017-08-22T05:45:13.958Z,101357.97
2017-08-22T05:47:41.335Z,101354.89
2017-08-22T05:50:08.988Z,101347.92
2017-08-22T05:52:36.566Z,101353.58
2017-08-22T05:55:03.751Z,101352.32
2017-08-22T05:57:30.931Z,101348.81
2017-08-22T05:59:58.316Z,101361.01
2017-08-22T06:02:25.947Z,101352.73
2017-08-22T06:04:53.135Z,101353.97
2017-08-22T06:07:20.459Z,101357.97
2017-08-22T06:09:48.154Z,101354.47
2017-08-22T06:12:15.329Z,101354.89
2017-08-22T06:14:42.501Z,101354.47
2017-08-22T06:17:09.978Z,101357.55
2017-08-22T06:19:37.470Z,101353.58
2017-08-22T06:22:05.013Z,101360.59
2017-08-22T06:24:32.211Z,101357.12
2017-08-22T06:26:59.385Z,101362.78
2017-08-22T06:29:26.553Z,101361.05
2017-08-22T06:31:53.729Z,101353.62
2017-08-22T06:34:21.174Z,101352.73
2017-08-22T06:36:48.639Z,101351.84
2017-08-22T06:39:16.159Z,101351.84
2017-08-22T06:41:43.559Z,101352.32
2017-08-22T06:44:11.193Z,101349.70
2017-08-22T06:46:38.782Z,101344.89
2017-08-22T06:49:06.428Z,101352.78
2017-08-22T06:51:33.681Z,101349.33
2017-08-22T06:54:00.857Z,101351.48
2017-08-22T06:56:28.403Z,101354.09
2017-08-22T06:58:55.762Z,101349.28
2017-08-22T07:01:22.929Z,101341.43
2017-08-22T07:03:50.458Z,101344.52
2017-08-22T07:06:17.701Z,101343.62
2017-08-22T07:08:44.967Z,101351.48
2017-08-22T07:11:12.484Z,101346.30
2017-08-22T07:13:40.002Z,101351.48
2017-08-22T07:16:07.188Z,101352.78
2017-08-22T07:18:34.487Z,101359.33
2017-08-22T07:21:01.657Z,101352.32
2017-08-22T07:23:29.096Z,101353.25
2017-08-22T07:25:56.269Z,101360.64
2017-08-22T07:28:23.441Z,101361.05
2017-08-22T07:30:51.167Z,101362.37
2017-08-22T07:33:18.337Z,101359.80
2017-08-22T07:35:45.525Z,101362.37
2017-08-22T07:38:12.905Z,101363.25
2017-08-22T07:40:40.443Z,101359.75
2017-08-22T07:43:07.833Z,101363.25
2017-08-22T07:45:35.009Z,101358.06
2017-08-22T07:48:02.437Z,101362.41
2017-08-22T07:50:29.965Z,101368.48
2017-08-22T07:52:57.483Z,101367.65
2017-08-22T07:55:24.998Z,101359.33
2017-08-22T07:57:52.274Z,101359.75
2017-08-22T08:00:19.463Z,101365.45
2017-08-22T08:02:46.665Z,101366.76
2017-08-22T08:05:14.217Z,101359.75
2017-08-22T08:07:41.658Z,101362.41
2017-08-22T08:10:09.255Z,101358.39
2017-08-22T08:12:37.267Z,101353.67
2017-08-22T08:15:04.464Z,101353.20
2017-08-22T08:17:31.922Z,101348.06
2017-08-22T08:19:59.381Z,101347.55
2017-08-22T08:22:27.154Z,101344.98
2017-08-22T08:24:54.336Z,101349.75
2017-08-22T08:27:21.756Z,101343.20
2017-08-22T08:29:49.525Z,101348.86
2017-08-22T08:32:16.727Z,101341.48
2017-08-22T08:34:43.897Z,101347.55
2017-08-22T08:37:11.277Z,101344.52
2017-08-22T08:39:38.445Z,101337.50
2017-08-22T08:42:05.884Z,101334.52
2017-08-22T08:44:33.054Z,101342.78
2017-08-22T08:47:00.245Z,101335.36
2017-08-22T08:49:27.953Z,101338.86
2017-08-22T08:51:55.121Z,101339.75
2017-08-22T08:54:22.356Z,101339.75
2017-08-22T08:56:49.755Z,101341.95
2017-08-22T08:59:17.275Z,101340.17
2017-08-22T09:01:44.475Z,101341.95
2017-08-22T09:04:12.085Z,101343.67
2017-08-22T09:06:39.531Z,101340.17
2017-08-22T09:09:06.995Z,101341.43
2017-08-22T09:11:34.636Z,101336.29
2017-08-22T09:14:01.825Z,101333.67
2017-08-22T09:16:29.245Z,101335.83
2017-08-22T09:18:56.512Z,101334.98
2017-08-22T09:21:23.687Z,101329.33
2017-08-22T09:23:50.867Z,101326.67
2017-08-22T09:26:18.583Z,101327.97
2017-08-22T09:28:45.761Z,101328.02
2017-08-22T09:31:13.180Z,101328.86
2017-08-22T09:33:40.383Z,101324.94
2017-08-22T09:36:07.909Z,101318.34
2017-08-22T09:38:35.099Z,101315.36
2017-08-22T09:41:02.469Z,101317.51
2017-08-22T09:43:30.035Z,101312.28
2017-08-22T09:45:57.626Z,101311.38
2017-08-22T09:48:24.800Z,101310.08
2017-08-22T09:50:52.413Z,101309.19
2017-08-22T09:53:19.998Z,101306.62
2017-08-22T09:55:47.169Z,101311.85
2017-08-22T09:58:14.716Z,101303.58
2017-08-22T10:00:42.132Z,101310.55
2017-08-22T10:03:09.700Z,101305.73
2017-08-22T10:05:36.889Z,101302.27
2017-08-22T10:08:04.062Z,101302.70
2017-08-22T10:10:31.456Z,101300.55
2017-08-22T10:12:58.893Z,101310.55
2017-08-22T10:15:26.185Z,101306.62
2017-08-22T10:17:53.642Z,101304.89
2017-08-22T10:20:20.833Z,101301.86
2017-08-22T10:22:48.087Z,101304.00
2017-08-22T10:25:15.253Z,101301.39
2017-08-22T10:27:42.648Z,101305.36
2017-08-22T10:30:10.115Z,101300.97
2017-08-22T10:32:37.589Z,101300.55
2017-08-22T10:35:04.764Z,101296.62
2017-08-22T10:37:31.934Z,101299.19
2017-08-22T10:39:59.120Z,101295.73
2017-08-22T10:42:26.290Z,101294.42
2017-08-22T10:44:53.527Z,101293.59
2017-08-22T10:47:20.701Z,101295.73
2017-08-22T10:49:48.204Z,101290.97
2017-08-22T10:52:15.399Z,101286.58
2017-08-22T10:54:42.815Z,101282.23
2017-08-22T10:57:10.203Z,101283.95
2017-08-22T10:59:37.661Z,101281.34
2017-08-22T11:02:05.191Z,101273.91
2017-08-22T11:04:32.562Z,101277.00
2017-08-22T11:07:00.076Z,101275.69
2017-08-22T11:09:27.483Z,101273.08
2017-08-22T11:11:54.676Z,101273.49
2017-08-22T11:14:21.883Z,101268.27
2017-08-22T11:16:49.073Z,101269.98
2017-08-22T11:19:16.237Z,101273.91
2017-08-22T11:21:43.405Z,101271.30
2017-08-22T11:24:10.573Z,101266.06
2017-08-22T11:26:37.745Z,101263.87
2017-08-22T11:29:04.994Z,101264.28
2017-08-22T11:31:32.183Z,101258.63
2017-08-22T11:33:59.906Z,101262.61
2017-08-22T11:36:27.407Z,101260.83
2017-08-22T11:38:54.927Z,101257.80
2017-08-22T11:41:22.097Z,101256.44
2017-08-22T11:43:49.277Z,101255.97
2017-08-22T11:46:16.753Z,101260.60
2017-08-22T11:48:43.923Z,101259.15
2017-08-22T11:51:11.109Z,101260.36
2017-08-22T11:53:38.331Z,101251.20
2017-08-22T11:56:05.777Z,101249.05
2017-08-22T11:58:33.240Z,101251.25
2017-08-22T12:01:00.733Z,101248.73
2017-08-22T12:03:27.917Z,101239.15
2017-08-22T12:05:55.303Z,101238.31
2017-08-22T12:08:22.488Z,101242.70
2017-08-22T12:10:49.671Z,101236.16
2017-08-22T12:13:17.063Z,101234.02
2017-08-22T12:15:44.252Z,101226.25
2017-08-22T12:18:11.470Z,101224.05
2017-08-22T12:20:38.670Z,101228.78
2017-08-22T12:23:05.969Z,101214.89
2017-08-22T12:25:33.607Z,101215.28
2017-08-22T12:28:00.796Z,101220.13
2017-08-22T12:30:27.981Z,101217.14
2017-08-22T12:32:55.356Z,101219.80
2017-08-22T12:35:22.547Z,101219.70
2017-08-22T12:37:49.797Z,101218.39
2017-08-22T12:40:16.969Z,101212.80
2017-08-22T12:42:44.401Z,101212.38
2017-08-22T12:45:11.573Z,101212.38
2017-08-22T12:47:38.997Z,101217.98
2017-08-22T12:50:06.530Z,101210.13
2017-08-22T12:52:33.705Z,101214.94
2017-08-22T12:55:01.265Z,101211.91
2017-08-22T12:57:28.436Z,101209.70
2017-08-22T12:59:55.620Z,101208.87
2017-08-22T13:02:22.823Z,101207.98
2017-08-22T13:04:50.593Z,101207.56
2017-08-22T13:07:17.780Z,101213.63
2017-08-22T13:09:45.394Z,101203.59
2017-08-22T13:12:12.970Z,101203.16
2017-08-22T13:14:40.141Z,101209.39
2017-08-22T13:17:07.309Z,101205.46
2017-08-22T13:19:34.686Z,101207.98
2017-08-22T13:22:02.176Z,101208.35
2017-08-22T13:24:29.635Z,101213.58
2017-08-22T13:26:56.817Z,101212.28
2017-08-22T13:29:24.337Z,101210.05
2017-08-22T13:31:51.522Z,101207.04
2017-08-22T13:34:18.709Z,101205.23
2017-08-22T13:36:45.877Z,101199.58
2017-08-22T13:39:13.047Z,101202.20
2017-08-22T13:41:40.369Z,101203.92
2017-08-22T13:44:07.542Z,101200.00
2017-08-22T13:46:34.713Z,101199.11
2017-08-22T13:49:02.119Z,101199.19
2017-08-22T13:51:29.639Z,101200.28
2017-08-22T13:53:57.182Z,101184.95
2017-08-22T13:56:24.365Z,101188.82
2017-08-22T13:58:51.642Z,101187.05
2017-08-22T14:01:19.157Z,101180.03
2017-08-22T14:03:46.493Z,101182.70
2017-08-22T14:06:13.948Z,101178.83
2017-08-22T14:08:41.116Z,101173.55
2017-08-22T14:11:08.577Z,101173.59
2017-08-22T14:13:36.944Z,101168.36
2017-08-22T14:16:04.389Z,101170.09
2017-08-22T14:18:31.565Z,101169.20
2017-08-22T14:20:59.001Z,101168.73
2017-08-22T14:23:26.237Z,101163.97
2017-08-22T14:25:53.409Z,101162.23
2017-08-22T14:28:20.756Z,101160.05
2017-08-22T14:30:48.216Z,101157.47
2017-08-22T14:33:15.758Z,101161.77
2017-08-22T14:35:43.255Z,101158.73
2017-08-22T14:38:10.644Z,101164.86
2017-08-22T14:40:37.818Z,101159.20
2017-08-22T14:43:04.993Z,101158.73
2017-08-22T14:45:32.339Z,101157.47
2017-08-22T14:47:59.523Z,101152.70
2017-08-22T14:50:26.713Z,101146.59
2017-08-22T14:52:53.884Z,101148.73
2017-08-22T14:55:21.075Z,101147.89
2017-08-22T14:57:48.401Z,101143.97
2017-08-22T15:00:16.172Z,101140.88
2017-08-22T15:02:43.359Z,101141.36
2017-08-22T15:05:11.086Z,101137.80
2017-08-22T15:07:38.726Z,101134.34
2017-08-22T15:10:05.909Z,101135.23
2017-08-22T15:12:33.150Z,101137.84
2017-08-22T15:15:00.913Z,101137.43
2017-08-22T15:17:28.366Z,101134.81
2017-08-22T15:19:55.537Z,101132.25
2017-08-22T15:22:22.724Z,101131.73
2017-08-22T15:24:50.224Z,101128.69
2017-08-22T15:27:17.580Z,101126.55
2017-08-22T15:29:44.762Z,101133.09
2017-08-22T15:32:11.933Z,101127.91
2017-08-22T15:34:39.648Z,101129.16
2017-08-22T15:37:07.083Z,101123.51
2017-08-22T15:39:34.255Z,101126.13
2017-08-22T15:42:01.420Z,101121.31
2017-08-22T15:44:28.589Z,101119.53
2017-08-22T15:46:56.013Z,101126.13
2017-08-22T15:49:23.181Z,101126.55
2017-08-22T15:51:50.354Z,101123.46
2017-08-22T15:54:18.378Z,101123.51
2017-08-22T15:56:45.838Z,101118.23
2017-08-22T15:59:13.491Z,101116.92
2017-08-22T16:01:40.742Z,101115.19
2017-08-22T16:04:08.376Z,101119.17
2017-08-22T16:06:35.842Z,101113.88
2017-08-22T16:09:03.028Z,101111.73
2017-08-22T16:11:30.281Z,101108.23
2017-08-22T16:13:57.825Z,101109.95
2017-08-22T16:16:25.183Z,101111.31
2017-08-22T16:18:52.829Z,101113.88
2017-08-22T16:21:19.998Z,101109.53
2017-08-22T16:23:47.170Z,101108.65
2017-08-22T16:26:14.352Z,101105.20
2017-08-22T16:28:41.857Z,101110.42
2017-08-22T16:31:09.044Z,101108.65
2017-08-22T16:33:36.778Z,101104.72
2017-08-22T16:36:04.426Z,101099.96
2017-08-22T16:38:32.004Z,101101.69
2017-08-22T16:40:59.173Z,101099.55
2017-08-22T16:43:26.600Z,101099.07
2017-08-22T16:45:54.120Z,101090.38
2017-08-22T16:48:21.638Z,101088.23
2017-08-22T16:50:48.973Z,101078.61
2017-08-22T16:53:16.141Z,101081.70
2017-08-22T16:55:43.815Z,101086.04
2017-08-22T16:58:11.043Z,101079.03
2017-08-22T17:00:38.218Z,101084.73
2017-08-22T17:03:05.400Z,101078.56
2017-08-22T17:05:33.108Z,101076.41
2017-08-22T17:08:00.625Z,101075.11
2017-08-22T17:10:28.017Z,101080.29
2017-08-22T17:12:55.478Z,101073.80
2017-08-22T17:15:23.133Z,101077.30
2017-08-22T17:17:50.472Z,101074.27
2017-08-22T17:20:17.655Z,101079.87
2017-08-22T17:22:44.993Z,101076.78
2017-08-22T17:25:12.459Z,101072.02
2017-08-22T17:27:40.091Z,101069.77
2017-08-22T17:30:07.280Z,101073.75
2017-08-22T17:32:34.453Z,101075.38
2017-08-22T17:35:01.628Z,101069.77
2017-08-22T17:37:28.816Z,101073.75
2017-08-22T17:39:56.276Z,101071.13
2017-08-22T17:42:23.460Z,101063.28
2017-08-22T17:44:50.628Z,101056.73
2017-08-22T17:47:17.794Z,101051.98
2017-08-22T17:49:44.967Z,101053.28
2017-08-22T17:52:12.147Z,101056.38
2017-08-22T17:54:39.327Z,101061.60
2017-08-22T17:57:06.639Z,101058.09
2017-08-22T17:59:34.089Z,101057.20
2017-08-22T18:02:01.859Z,101058.52
2017-08-22T18:04:29.044Z,101058.98
2017-08-22T18:06:56.461Z,101062.49
2017-08-22T18:09:23.916Z,101062.49
2017-08-22T18:11:51.103Z,101058.52
2017-08-22T18:14:18.285Z,101068.09
2017-08-22T18:16:45.454Z,101069.88
2017-08-22T18:19:12.825Z,101068.14
2017-08-22T18:21:40.002Z,101070.34
2017-08-22T18:24:07.190Z,101070.34
2017-08-22T18:26:34.381Z,101073.33
2017-08-22T18:29:01.732Z,101065.53
2017-08-22T18:31:29.189Z,101065.53
2017-08-22T18:33:56.362Z,101073.38
2017-08-22T18:36:23.538Z,101071.18
2017-08-22T18:38:50.705Z,101069.92
2017-08-22T18:41:17.874Z,101077.72
2017-08-22T18:43:45.353Z,101076.41
2017-08-22T18:46:12.894Z,101080.39
2017-08-22T18:48:40.475Z,101077.77
2017-08-22T18:51:08.761Z,101082.59
2017-08-22T18:53:35.998Z,101081.23
2017-08-22T18:56:03.643Z,101086.93
2017-08-22T18:58:31.225Z,101081.70
2017-08-22T19:00:58.715Z,101084.73
2017-08-22T19:03:26.133Z,101078.61
2017-08-22T19:05:53.785Z,101079.45
2017-08-22T19:08:21.361Z,101081.23
2017-08-22T19:10:48.994Z,101085.15
2017-08-22T19:13:16.263Z,101082.95
2017-08-22T19:15:44.953Z,101078.66
2017-08-22T19:18:12.495Z,101080.39
2017-08-22T19:20:39.986Z,101082.53
2017-08-22T19:23:07.457Z,101084.27
2017-08-22T19:25:34.640Z,101079.97
2017-08-22T19:28:01.933Z,101089.68
2017-08-22T19:30:29.585Z,101088.64
